Terminal Aerodrome Forecast
Issued by NWS Lake Charles, LA

Home | Current Version | Previous Version | Text Only | Print | Product List | Glossary On
Versions: 1 2 3 4 5 6 7 8 9 10 11 12 13 14 15 16 17 18 19
000
FTUS44 KLCH 262320
TAFLFT
TAF
KLFT 262320Z 2700/2724 18013G21KT P6SM VCSH SCT025 BKN035
     FM270600 18008KT P6SM BKN023 OVC050
      TEMPO 2708/2711 3SM TSRA BKN025 BKN035CB
     FM271500 17010KT P6SM VCSH BKN025
     FM271900 16010G16KT P6SM SCT030 OVC050=

USA.gov is the U.S. government's official web portal to all federal, state and local government web resources and services.